createdAt,value
2019-02-21T00:01:40.987Z,11.38
2019-02-21T00:04:10.735Z,11.48
2019-02-21T00:06:40.761Z,10.78
2019-02-21T00:09:10.608Z,10.65
2019-02-21T00:11:40.438Z,10.63
2019-02-21T00:14:10.719Z,10.43
2019-02-21T00:16:40.670Z,10.95
2019-02-21T00:19:10.894Z,10.88
2019-02-21T00:21:40.471Z,11.35
2019-02-21T00:24:10.436Z,10.93
2019-02-21T00:26:40.577Z,11.30
2019-02-21T00:29:10.368Z,11.28
2019-02-21T00:31:41.119Z,11.45
2019-02-21T00:34:10.726Z,11.48
2019-02-21T00:36:40.491Z,11.03
2019-02-21T00:39:10.693Z,11.73
2019-02-21T00:41:40.448Z,11.28
2019-02-21T00:44:10.359Z,11.33
2019-02-21T00:46:40.205Z,11.75
2019-02-21T00:49:10.039Z,11.15
2019-02-21T00:51:40.043Z,11.90
2019-02-21T00:54:10.018Z,11.03
2019-02-21T00:56:40.161Z,10.88
2019-02-21T00:59:10.327Z,10.95
2019-02-21T01:01:40.041Z,11.95
2019-02-21T01:04:09.777Z,11.12
2019-02-21T01:06:39.843Z,11.73
2019-02-21T01:09:09.727Z,11.53
2019-02-21T01:11:39.656Z,12.20
2019-02-21T01:14:09.672Z,11.83
2019-02-21T01:16:39.531Z,11.90
2019-02-21T01:19:10.255Z,12.23
2019-02-21T01:21:39.972Z,12.03
2019-02-21T01:24:10.198Z,11.65
2019-02-21T01:26:39.796Z,12.73
2019-02-21T01:29:09.509Z,11.73
2019-02-21T01:31:39.659Z,11.55
2019-02-21T01:34:27.622Z,11.43
2019-02-21T01:36:57.232Z,11.85
2019-02-21T01:39:26.838Z,11.57
2019-02-21T01:41:56.512Z,11.10
2019-02-21T01:44:26.084Z,10.95
2019-02-21T01:46:55.635Z,10.95
2019-02-21T01:49:25.211Z,11.18
2019-02-21T01:51:54.815Z,10.80
2019-02-21T01:54:24.382Z,11.68
2019-02-21T01:56:54.058Z,11.18
2019-02-21T01:59:24.075Z,11.65
2019-02-21T02:01:54.239Z,12.13
2019-02-21T02:04:27.324Z,11.33
2019-02-21T02:06:56.863Z,11.93
2019-02-21T02:09:26.467Z,11.28
2019-02-21T02:11:56.043Z,11.00
2019-02-21T02:14:26.857Z,10.78
2019-02-21T02:16:56.407Z,11.18
2019-02-21T02:19:25.964Z,10.20
2019-02-21T02:21:55.499Z,10.68
2019-02-21T02:24:25.045Z,11.55
2019-02-21T02:26:54.675Z,10.38
2019-02-21T02:29:24.284Z,11.08
2019-02-21T02:31:54.252Z,10.78
2019-02-21T02:34:27.095Z,10.75
2019-02-21T02:36:57.253Z,11.40
2019-02-21T02:39:26.937Z,11.10
2019-02-21T02:41:56.709Z,10.40
2019-02-21T02:44:27.033Z,10.48
2019-02-21T02:46:56.603Z,10.82
2019-02-21T02:49:26.167Z,11.12
2019-02-21T02:51:55.793Z,10.15
2019-02-21T02:54:25.679Z,10.40
2019-02-21T02:56:55.309Z,10.53
2019-02-21T02:59:24.859Z,10.18
2019-02-21T03:01:54.467Z,9.58
2019-02-21T03:04:27.146Z,9.65
2019-02-21T03:06:56.759Z,9.53
2019-02-21T03:09:26.309Z,8.60
2019-02-21T03:11:55.922Z,9.30
2019-02-21T03:14:25.763Z,8.38
2019-02-21T03:16:55.417Z,9.53
2019-02-21T03:19:24.984Z,8.40
2019-02-21T03:21:54.592Z,8.95
2019-02-21T03:24:27.918Z,8.68
2019-02-21T03:26:57.539Z,8.18
2019-02-21T03:29:27.074Z,8.10
2019-02-21T03:31:56.752Z,7.78
2019-02-21T03:34:26.393Z,8.13
2019-02-21T03:36:56.198Z,7.55
2019-02-21T03:39:25.800Z,7.65
2019-02-21T03:41:55.550Z,7.35
2019-02-21T03:44:25.347Z,7.62
2019-02-21T03:46:54.976Z,7.90
2019-02-21T03:49:25.295Z,7.72
2019-02-21T03:51:54.823Z,7.15
2019-02-21T03:54:24.498Z,7.53
2019-02-21T03:56:54.263Z,7.20
2019-02-21T03:59:23.873Z,7.05
2019-02-21T04:02:04.577Z,6.90
2019-02-21T04:04:24.882Z,7.28
2019-02-21T04:06:54.637Z,6.85
2019-02-21T04:09:25.005Z,6.50
2019-02-21T04:11:54.795Z,7.17
2019-02-21T04:14:24.520Z,7.17
2019-02-21T04:16:54.119Z,6.78
2019-02-21T04:19:23.743Z,7.20
2019-02-21T04:21:53.266Z,6.55
2019-02-21T04:24:22.947Z,6.87
2019-02-21T04:26:52.749Z,6.83
2019-02-21T04:29:22.675Z,7.03
2019-02-21T04:31:52.683Z,7.47
2019-02-21T04:34:24.699Z,7.20
2019-02-21T04:36:54.312Z,7.70
2019-02-21T04:39:23.927Z,7.40
2019-02-21T04:41:53.501Z,7.87
2019-02-21T04:44:23.051Z,7.45
2019-02-21T04:46:52.653Z,7.35
2019-02-21T04:49:22.591Z,6.87
2019-02-21T04:51:52.480Z,6.47
2019-02-21T04:54:22.402Z,6.25
2019-02-21T04:56:52.260Z,6.08
2019-02-21T04:59:22.237Z,5.78
2019-02-21T05:01:52.456Z,6.08
2019-02-21T05:04:22.392Z,5.72
2019-02-21T05:06:52.291Z,5.47
2019-02-21T05:09:22.044Z,4.75
2019-02-21T05:11:52.039Z,5.15
2019-02-21T05:14:21.896Z,4.92
2019-02-21T05:16:51.947Z,4.67
2019-02-21T05:19:21.895Z,4.20
2019-02-21T05:21:51.790Z,4.25
2019-02-21T05:24:22.028Z,3.83
2019-02-21T05:26:53.678Z,3.60
2019-02-21T05:29:23.286Z,3.80
2019-02-21T05:32:10.747Z,4.05
2019-02-21T05:34:50.248Z,3.90
2019-02-21T05:37:27.248Z,3.58
2019-02-21T05:39:58.468Z,4.10
2019-02-21T05:42:35.669Z,3.75
2019-02-21T05:45:14.081Z,3.80
2019-02-21T05:47:45.956Z,3.47
2019-02-21T05:50:17.127Z,3.65
2019-02-21T05:52:51.628Z,4.25
2019-02-21T05:55:22.840Z,4.00
2019-02-21T05:58:06.163Z,3.90
2019-02-21T06:00:43.985Z,4.00
2019-02-21T06:03:18.344Z,3.80
2019-02-21T06:05:55.688Z,4.00
2019-02-21T06:08:28.678Z,4.00
2019-02-21T06:10:59.861Z,4.42
2019-02-21T06:13:46.257Z,4.45
2019-02-21T06:16:26.724Z,4.20
2019-02-21T06:19:14.492Z,4.05
2019-02-21T06:21:51.597Z,4.20
2019-02-21T06:24:39.647Z,4.20
2019-02-21T06:27:12.222Z,4.30
2019-02-21T06:29:43.745Z,4.12
2019-02-21T06:32:14.614Z,4.10
2019-02-21T06:34:44.420Z,3.87
2019-02-21T06:37:14.556Z,3.90
2019-02-21T06:39:44.184Z,4.25
2019-02-21T06:42:13.779Z,3.70
2019-02-21T06:44:43.426Z,3.62
2019-02-21T06:47:13.545Z,3.40
2019-02-21T06:49:43.131Z,3.60
2019-02-21T06:52:12.660Z,3.20
2019-02-21T06:54:42.224Z,3.50
2019-02-21T06:57:11.756Z,3.45
2019-02-21T06:59:43.492Z,2.90
2019-02-21T07:02:13.779Z,3.08
2019-02-21T07:04:43.296Z,3.05
2019-02-21T07:07:12.836Z,3.30
2019-02-21T07:09:42.388Z,3.30
2019-02-21T07:12:11.923Z,2.85
2019-02-21T07:14:41.524Z,3.20
2019-02-21T07:17:11.161Z,2.90
2019-02-21T07:19:41.071Z,2.77
2019-02-21T07:22:17.490Z,3.33
2019-02-21T07:24:43.803Z,2.70
2019-02-21T07:27:13.727Z,3.22
2019-02-21T07:29:43.476Z,3.15
2019-02-21T07:32:13.096Z,3.00
2019-02-21T07:34:44.806Z,2.90
2019-02-21T07:37:18.460Z,2.75
2019-02-21T07:39:46.140Z,2.72
2019-02-21T07:42:15.712Z,2.70
2019-02-21T07:44:45.838Z,3.05
2019-02-21T07:47:15.784Z,3.12
2019-02-21T07:49:45.720Z,2.50
2019-02-21T07:52:15.806Z,2.83
2019-02-21T07:54:45.667Z,2.47
2019-02-21T07:57:15.588Z,2.67
2019-02-21T07:59:45.537Z,3.02
2019-02-21T08:02:15.687Z,3.00
2019-02-21T08:04:46.837Z,2.60
2019-02-21T08:07:16.453Z,2.52
2019-02-21T08:09:46.155Z,2.65
2019-02-21T08:12:15.823Z,2.50
2019-02-21T08:14:45.543Z,2.08
2019-02-21T08:17:16.270Z,2.40
2019-02-21T08:19:46.195Z,2.47
2019-02-21T08:22:15.791Z,2.77
2019-02-21T08:24:45.714Z,2.75
2019-02-21T08:27:15.290Z,2.90
2019-02-21T08:29:45.252Z,2.50
2019-02-21T08:32:16.963Z,2.52
2019-02-21T08:34:48.449Z,2.35
2019-02-21T08:37:18.307Z,2.62
2019-02-21T08:39:47.862Z,2.70
2019-02-21T08:42:17.548Z,2.30
2019-02-21T08:44:47.219Z,2.60
2019-02-21T08:47:17.898Z,2.60
2019-02-21T08:49:47.628Z,2.70
2019-02-21T08:52:17.235Z,2.42
2019-02-21T08:54:47.656Z,3.05
2019-02-21T08:57:19.592Z,2.60
2019-02-21T08:59:48.418Z,2.70
2019-02-21T09:02:18.039Z,2.98
2019-02-21T09:04:47.584Z,2.52
2019-02-21T09:07:17.153Z,2.30
2019-02-21T09:09:47.447Z,2.55
2019-02-21T09:12:17.118Z,2.52
2019-02-21T09:14:46.649Z,2.75
2019-02-21T09:17:16.272Z,2.30
2019-02-21T09:19:46.108Z,2.60
2019-02-21T09:22:15.919Z,2.50
2019-02-21T09:24:45.959Z,2.55
2019-02-21T09:27:15.831Z,2.45
2019-02-21T09:29:45.763Z,2.20
2019-02-21T09:32:15.763Z,2.47
2019-02-21T09:34:45.704Z,2.45
2019-02-21T09:37:15.749Z,2.30
2019-02-21T09:39:45.603Z,2.37
2019-02-21T09:42:15.732Z,2.35
2019-02-21T09:44:45.675Z,2.30
2019-02-21T09:47:15.224Z,2.20
2019-02-21T09:49:44.823Z,1.70
2019-02-21T09:52:14.355Z,2.15
2019-02-21T09:54:43.976Z,2.00
2019-02-21T09:57:13.848Z,2.10
2019-02-21T09:59:43.696Z,2.25
2019-02-21T10:02:13.248Z,1.70
2019-02-21T10:04:42.962Z,1.77
2019-02-21T10:07:12.582Z,1.87
2019-02-21T10:09:42.867Z,1.72
2019-02-21T10:12:14.707Z,9.00
2019-02-21T10:14:44.311Z,2.20
2019-02-21T10:17:13.867Z,1.60
2019-02-21T10:19:43.532Z,1.70
2019-02-21T10:22:13.304Z,1.50
2019-02-21T10:24:42.963Z,1.50
2019-02-21T10:27:12.547Z,1.40
2019-02-21T10:29:42.457Z,1.65
2019-02-21T10:32:12.383Z,1.85
2019-02-21T10:34:43.384Z,1.62
2019-02-21T10:37:13.283Z,2.08
2019-02-21T10:39:42.910Z,1.50
2019-02-21T10:42:12.672Z,1.35
2019-02-21T10:44:42.274Z,1.60
2019-02-21T10:47:12.107Z,2.02
2019-02-21T10:49:41.647Z,1.57
2019-02-21T10:52:11.344Z,2.00
2019-02-21T10:54:41.211Z,1.98
2019-02-21T10:57:10.732Z,2.00
2019-02-21T10:59:46.618Z,2.00
2019-02-21T11:02:11.776Z,2.02
2019-02-21T11:04:42.203Z,1.87
2019-02-21T11:07:12.424Z,2.30
2019-02-21T11:09:41.975Z,2.15
2019-02-21T11:12:12.016Z,2.05
2019-02-21T11:14:47.582Z,1.60
2019-02-21T11:17:12.863Z,1.72
2019-02-21T11:19:42.567Z,1.60
2019-02-21T11:22:12.156Z,2.17
2019-02-21T11:24:41.855Z,2.12
2019-02-21T11:27:11.465Z,2.25
2019-02-21T11:29:41.055Z,2.12
2019-02-21T11:32:13.814Z,2.37
2019-02-21T11:34:43.683Z,2.62
2019-02-21T11:37:13.278Z,2.30
2019-02-21T11:39:42.968Z,2.58
2019-02-21T11:42:12.487Z,2.60
2019-02-21T11:44:42.463Z,4.05
2019-02-21T11:47:12.025Z,2.10
2019-02-21T11:49:41.680Z,1.92
2019-02-21T11:52:11.347Z,2.10
2019-02-21T11:54:41.127Z,1.72
2019-02-21T11:57:10.656Z,1.72
2019-02-21T11:59:40.185Z,2.10
2019-02-21T12:02:09.999Z,2.17
2019-02-21T12:04:39.599Z,2.22
2019-02-21T12:07:09.120Z,1.67
2019-02-21T12:09:39.064Z,1.75
2019-02-21T12:12:10.445Z,1.90
2019-02-21T12:14:40.344Z,2.10
2019-02-21T12:17:09.967Z,2.20
2019-02-21T12:19:39.512Z,13.68
2019-02-21T12:22:09.112Z,9.43
2019-02-21T12:24:38.745Z,14.15
2019-02-21T12:27:08.588Z,3.00
2019-02-21T12:29:38.123Z,2.27
2019-02-21T12:32:07.768Z,2.10
2019-02-21T12:34:37.581Z,2.50
2019-02-21T12:37:07.108Z,2.12
2019-02-21T12:39:36.766Z,2.22
2019-02-21T12:42:06.472Z,2.52
2019-02-21T12:44:36.009Z,2.22
2019-02-21T12:47:05.639Z,2.30
2019-02-21T12:49:35.180Z,2.00
2019-02-21T12:52:04.906Z,2.37
2019-02-21T12:54:35.059Z,2.10
2019-02-21T12:57:04.734Z,2.00
2019-02-21T12:59:34.336Z,2.12
2019-02-21T13:02:03.964Z,2.30
2019-02-21T13:04:33.661Z,2.08
2019-02-21T13:07:03.403Z,2.37
2019-02-21T13:09:33.100Z,2.47
2019-02-21T13:12:02.927Z,2.42
2019-02-21T13:14:32.861Z,2.33
2019-02-21T13:17:02.826Z,2.25
2019-02-21T13:19:32.692Z,1.90
2019-02-21T13:22:05.492Z,2.10
2019-02-21T13:24:35.047Z,2.12
2019-02-21T13:27:04.640Z,2.12
2019-02-21T13:29:34.185Z,2.27
2019-02-21T13:32:03.893Z,1.67
2019-02-21T13:34:33.463Z,1.72
2019-02-21T13:37:03.063Z,1.82
2019-02-21T13:39:32.624Z,2.08
2019-02-21T13:42:02.279Z,1.82
2019-02-21T13:44:31.815Z,2.00
2019-02-21T13:47:01.530Z,1.85
2019-02-21T13:49:31.132Z,1.90
2019-02-21T13:52:00.731Z,2.20
2019-02-21T13:54:30.350Z,2.20
2019-02-21T13:56:59.955Z,1.90
2019-02-21T13:59:29.562Z,1.90
2019-02-21T14:01:59.127Z,1.87
2019-02-21T14:04:28.731Z,2.10
2019-02-21T14:06:58.259Z,2.10
2019-02-21T14:09:30.852Z,2.10
2019-02-21T14:12:00.456Z,6.55
2019-02-21T14:14:30.975Z,2.22
2019-02-21T14:17:00.830Z,3.15
2019-02-21T14:19:30.363Z,2.20
2019-02-21T14:21:59.974Z,2.20
2019-02-21T14:24:36.837Z,2.27
2019-02-21T14:27:01.761Z,2.80
2019-02-21T14:29:39.402Z,3.10
2019-02-21T14:32:02.863Z,2.20
2019-02-21T14:34:32.457Z,3.30
2019-02-21T14:37:02.069Z,2.85
2019-02-21T14:39:32.460Z,2.77
2019-02-21T14:42:04.321Z,2.83
2019-02-21T14:44:33.286Z,2.77
2019-02-21T14:47:03.180Z,2.60
2019-02-21T14:49:32.714Z,3.15
2019-02-21T14:52:02.324Z,3.40
2019-02-21T14:54:31.883Z,2.52
2019-02-21T14:57:01.547Z,3.58
2019-02-21T14:59:31.160Z,5.50
2019-02-21T15:02:01.159Z,3.77
2019-02-21T15:04:30.824Z,3.47
2019-02-21T15:07:01.055Z,3.37
2019-02-21T15:09:30.907Z,4.80
2019-02-21T15:12:00.715Z,4.85
2019-02-21T15:14:30.249Z,5.00
2019-02-21T15:16:59.883Z,4.20
2019-02-21T15:19:29.637Z,3.55
2019-02-21T15:21:59.187Z,4.35
2019-02-21T15:24:28.871Z,4.00
2019-02-21T15:27:08.166Z,4.00
2019-02-21T15:29:29.647Z,7.53
2019-02-21T15:32:10.221Z,6.40
2019-02-21T15:34:30.504Z,4.67
2019-02-21T15:37:00.287Z,3.45
2019-02-21T15:39:30.232Z,3.37
2019-02-21T15:41:59.762Z,2.90
2019-02-21T15:44:29.396Z,2.95
2019-02-21T15:46:59.056Z,2.90
2019-02-21T15:49:28.632Z,2.80
2019-02-21T15:51:58.236Z,3.00
2019-02-21T15:54:30.022Z,2.85
2019-02-21T15:56:59.923Z,4.17
2019-02-21T15:59:29.543Z,3.45
2019-02-21T16:01:59.162Z,3.00
2019-02-21T16:04:28.822Z,3.17
2019-02-21T16:06:58.360Z,3.17
2019-02-21T16:09:27.992Z,3.37
2019-02-21T16:11:57.741Z,3.55
2019-02-21T16:14:27.481Z,3.37
2019-02-21T16:16:57.027Z,3.50
2019-02-21T16:19:27.307Z,3.92
2019-02-21T16:21:57.305Z,3.72
2019-02-21T16:24:26.855Z,3.70
2019-02-21T16:26:56.477Z,4.60
2019-02-21T16:29:26.127Z,4.80
2019-02-21T16:31:55.746Z,4.00
2019-02-21T16:34:25.302Z,4.03
2019-02-21T16:37:02.111Z,4.28
2019-02-21T16:39:26.174Z,4.15
2019-02-21T16:41:55.777Z,4.50
2019-02-21T16:44:25.309Z,4.37
2019-02-21T16:46:55.110Z,3.85
2019-02-21T16:49:27.844Z,4.37
2019-02-21T16:51:57.720Z,4.37
2019-02-21T16:54:27.580Z,3.90
2019-02-21T16:56:57.111Z,6.15
2019-02-21T16:59:27.024Z,11.28
2019-02-21T17:01:56.666Z,13.68
2019-02-21T17:04:27.348Z,12.13
2019-02-21T17:06:57.105Z,9.85
2019-02-21T17:09:26.727Z,15.30
2019-02-21T17:11:56.540Z,12.70
2019-02-21T17:14:26.155Z,20.17
2019-02-21T17:16:56.109Z,17.45
2019-02-21T17:19:25.645Z,19.60
2019-02-21T17:21:55.584Z,10.60
2019-02-21T17:24:25.228Z,7.70
2019-02-21T17:26:54.760Z,7.85
2019-02-21T17:29:24.529Z,5.15
2019-02-21T17:31:54.380Z,6.10
2019-02-21T17:34:24.408Z,5.28
2019-02-21T17:36:54.149Z,8.08
2019-02-21T17:39:24.506Z,11.93
2019-02-21T17:41:54.321Z,9.70
2019-02-21T17:44:26.291Z,7.42
2019-02-21T17:46:56.220Z,8.65
2019-02-21T17:49:25.756Z,11.33
2019-02-21T17:51:55.367Z,18.67
2019-02-21T17:54:27.543Z,17.27
2019-02-21T17:56:56.227Z,12.80
2019-02-21T17:59:25.779Z,11.85
2019-02-21T18:01:56.031Z,10.08
2019-02-21T18:04:25.595Z,9.28
2019-02-21T18:06:55.127Z,9.45
2019-02-21T18:09:26.295Z,9.13
2019-02-21T18:11:58.883Z,8.28
2019-02-21T18:14:28.972Z,8.05
2019-02-21T18:16:58.904Z,6.53
2019-02-21T18:19:28.792Z,9.13
2019-02-21T18:21:58.807Z,7.47
2019-02-21T18:24:28.969Z,8.83
2019-02-21T18:26:58.756Z,9.83
2019-02-21T18:29:28.756Z,10.55
2019-02-21T18:31:58.405Z,10.28
2019-02-21T18:34:28.299Z,10.55
2019-02-21T18:36:58.047Z,13.60
2019-02-21T18:39:29.476Z,13.13
2019-02-21T18:41:59.365Z,13.48
2019-02-21T18:44:29.163Z,12.95
2019-02-21T18:46:59.239Z,14.95
2019-02-21T18:49:29.514Z,18.17
2019-02-21T18:51:59.255Z,18.27
2019-02-21T18:54:30.071Z,16.42
2019-02-21T18:56:59.683Z,15.88
2019-02-21T18:59:31.956Z,15.53
2019-02-21T19:02:00.910Z,12.30
2019-02-21T19:04:33.882Z,12.47
2019-02-21T19:07:05.042Z,19.50
2019-02-21T19:09:34.827Z,18.52
2019-02-21T19:12:04.745Z,18.23
2019-02-21T19:14:34.726Z,17.57
2019-02-21T19:17:04.756Z,17.15
2019-02-21T19:19:34.521Z,17.65
2019-02-21T19:22:05.821Z,16.57
2019-02-21T19:24:37.040Z,18.17
2019-02-21T19:27:07.012Z,17.10
2019-02-21T19:29:36.632Z,19.40
2019-02-21T19:32:06.672Z,18.85
2019-02-21T19:34:36.411Z,19.30
2019-02-21T19:37:07.849Z,15.48
2019-02-21T19:39:37.419Z,16.12
2019-02-21T19:42:07.033Z,16.32
2019-02-21T19:44:36.676Z,21.73
2019-02-21T19:47:06.814Z,16.80
2019-02-21T19:49:36.500Z,16.93
2019-02-21T19:52:06.519Z,18.80
2019-02-21T19:54:36.927Z,19.80
2019-02-21T19:57:06.784Z,19.27
2019-02-21T19:59:36.323Z,18.60
2019-02-21T20:02:05.963Z,20.82
2019-02-21T20:04:36.250Z,18.37
2019-02-21T20:07:05.951Z,18.37
2019-02-21T20:09:46.881Z,18.40
2019-02-21T20:12:17.005Z,16.45
2019-02-21T20:14:46.675Z,17.07
2019-02-21T20:17:17.005Z,16.20
2019-02-21T20:19:46.828Z,15.53
2019-02-21T20:22:19.106Z,14.35
2019-02-21T20:24:48.744Z,15.45
2019-02-21T20:27:18.424Z,14.07
2019-02-21T20:29:47.957Z,13.53
2019-02-21T20:32:17.695Z,14.73
2019-02-21T20:34:47.315Z,14.85
2019-02-21T20:37:16.844Z,15.43
2019-02-21T20:39:47.189Z,13.60
2019-02-21T20:42:16.795Z,14.78
2019-02-21T20:44:46.475Z,12.63
2019-02-21T20:47:17.032Z,12.25
2019-02-21T20:49:46.567Z,11.97
2019-02-21T20:52:16.372Z,11.45
2019-02-21T20:54:46.076Z,11.53
2019-02-21T20:57:22.273Z,12.07
2019-02-21T20:59:55.096Z,11.53
2019-02-21T21:02:26.419Z,12.33
2019-02-21T21:04:56.387Z,12.13
2019-02-21T21:07:26.548Z,11.48
2019-02-21T21:09:56.195Z,12.43
2019-02-21T21:12:25.839Z,12.75
2019-02-21T21:14:55.408Z,12.98
2019-02-21T21:17:28.750Z,13.15
2019-02-21T21:19:58.445Z,13.10
2019-02-21T21:22:28.619Z,13.83
2019-02-21T21:24:58.233Z,14.00
2019-02-21T21:27:28.403Z,14.03
2019-02-21T21:29:57.990Z,14.60
2019-02-21T21:32:27.732Z,14.70
2019-02-21T21:34:57.278Z,15.55
2019-02-21T21:37:26.989Z,17.23
2019-02-21T21:39:56.949Z,17.95
2019-02-21T21:42:26.730Z,17.65
2019-02-21T21:44:56.395Z,18.57
2019-02-21T21:47:25.996Z,18.67
2019-02-21T21:49:55.539Z,18.90
2019-02-21T21:52:25.236Z,18.45
2019-02-21T21:54:55.242Z,19.27
2019-02-21T21:57:26.467Z,18.95
2019-02-21T21:59:56.197Z,18.90
2019-02-21T22:02:25.863Z,19.10
2019-02-21T22:04:55.651Z,19.85
2019-02-21T22:07:25.675Z,20.08
2019-02-21T22:09:55.289Z,19.95
2019-02-21T22:12:26.443Z,19.00
2019-02-21T22:14:56.072Z,20.68
2019-02-21T22:17:25.692Z,20.60
2019-02-21T22:19:55.251Z,19.87
2019-02-21T22:22:26.541Z,20.08
2019-02-21T22:24:56.492Z,20.95
2019-02-21T22:27:26.405Z,20.30
2019-02-21T22:29:56.116Z,21.17
2019-02-21T22:32:25.704Z,21.95
2019-02-21T22:34:55.324Z,24.50
2019-02-21T22:37:24.994Z,21.80
2019-02-21T22:39:54.607Z,21.02
2019-02-21T22:42:24.217Z,20.50
2019-02-21T22:44:53.859Z,22.02
2019-02-21T22:47:23.689Z,22.07
2019-02-21T22:49:53.765Z,22.13
2019-02-21T22:52:23.892Z,22.65
2019-02-21T22:54:53.704Z,23.30
2019-02-21T22:57:23.725Z,23.15
2019-02-21T22:59:53.518Z,23.50
2019-02-21T23:02:25.467Z,23.10
2019-02-21T23:05:01.222Z,24.07
2019-02-21T23:07:33.927Z,22.58
2019-02-21T23:10:03.873Z,23.45
2019-02-21T23:12:33.660Z,22.67
2019-02-21T23:15:03.444Z,23.35
2019-02-21T23:17:33.180Z,22.15
2019-02-21T23:20:03.684Z,22.35
2019-02-21T23:22:33.460Z,22.48
2019-02-21T23:25:07.934Z,22.48
2019-02-21T23:27:38.100Z,22.62
2019-02-21T23:30:10.759Z,22.62
2019-02-21T23:32:40.663Z,22.52
2019-02-21T23:35:12.936Z,22.82
2019-02-21T23:37:42.541Z,22.10
2019-02-21T23:40:12.173Z,22.15
2019-02-21T23:42:43.769Z,22.07
2019-02-21T23:45:13.391Z,23.07
2019-02-21T23:47:49.859Z,21.40
2019-02-21T23:50:14.440Z,22.50
2019-02-21T23:52:44.192Z,23.20
2019-02-21T23:55:13.771Z,22.27
2019-02-21T23:57:43.401Z,23.42
